createdAt,value
2017-03-14T00:03:29.352Z,7.00
2017-03-14T00:08:26.944Z,7.10
2017-03-14T00:13:23.563Z,6.99
2017-03-14T00:18:19.607Z,6.96
2017-03-14T00:23:16.022Z,6.97
2017-03-14T00:28:12.419Z,6.85
2017-03-14T00:33:08.877Z,6.85
2017-03-14T00:38:05.243Z,6.72
2017-03-14T00:43:01.633Z,6.81
2017-03-14T00:47:57.716Z,6.81
2017-03-14T00:52:54.238Z,6.84
2017-03-14T00:57:50.778Z,6.84
2017-03-14T01:02:46.979Z,6.82
2017-03-14T01:07:43.426Z,6.82
2017-03-14T01:12:39.702Z,6.75
2017-03-14T01:17:36.335Z,6.72
2017-03-14T01:22:32.908Z,6.63
2017-03-14T01:27:29.319Z,6.63
2017-03-14T01:32:25.657Z,6.64
2017-03-14T01:37:22.799Z,6.49
2017-03-14T01:42:19.408Z,6.66
2017-03-14T01:47:15.569Z,6.49
2017-03-14T01:52:11.975Z,6.62
2017-03-14T01:57:08.993Z,6.52
2017-03-14T02:02:05.267Z,6.62
2017-03-14T02:07:01.988Z,6.60
2017-03-14T02:11:58.368Z,6.51
2017-03-14T02:16:54.463Z,6.54
2017-03-14T02:21:51.113Z,6.56
2017-03-14T02:26:47.559Z,6.56
2017-03-14T02:31:44.073Z,6.45
2017-03-14T02:36:41.049Z,6.26
2017-03-14T02:41:37.580Z,6.33
2017-03-14T02:46:33.985Z,6.27
2017-03-14T02:51:29.936Z,6.33
2017-03-14T02:56:26.314Z,6.30
2017-03-14T03:01:22.802Z,6.14
2017-03-14T03:06:19.342Z,6.11
2017-03-14T03:11:16.939Z,6.02
2017-03-14T03:16:13.517Z,5.90
2017-03-14T03:21:09.759Z,6.07
2017-03-14T03:26:06.182Z,6.16
2017-03-14T03:31:02.649Z,6.09
2017-03-14T03:35:59.281Z,6.28
2017-03-14T03:40:55.563Z,6.20
2017-03-14T03:45:52.278Z,6.24
2017-03-14T03:50:49.001Z,6.28
2017-03-14T03:55:46.100Z,6.20
2017-03-14T04:00:43.165Z,6.14
2017-03-14T04:05:39.542Z,6.27
2017-03-14T04:10:35.929Z,6.12
2017-03-14T04:15:32.497Z,6.16
2017-03-14T04:20:28.983Z,6.26
2017-03-14T04:25:25.437Z,6.38
2017-03-14T04:30:21.703Z,6.59
2017-03-14T04:35:18.837Z,6.41
2017-03-14T04:40:15.217Z,6.57
2017-03-14T04:45:11.627Z,6.44
2017-03-14T04:50:08.435Z,6.45
2017-03-14T04:55:04.581Z,6.41
2017-03-14T05:00:00.943Z,6.35
2017-03-14T05:04:57.341Z,6.28
2017-03-14T05:09:53.701Z,6.26
2017-03-14T05:14:50.236Z,6.07
2017-03-14T05:19:46.543Z,5.93
2017-03-14T05:24:42.914Z,6.12
2017-03-14T05:29:39.232Z,6.14
2017-03-14T05:34:35.938Z,6.09
2017-03-14T05:39:32.397Z,6.19
2017-03-14T05:44:28.801Z,6.24
2017-03-14T05:49:25.221Z,6.26
2017-03-14T05:54:21.463Z,6.22
2017-03-14T05:59:18.041Z,6.39
2017-03-14T06:04:14.559Z,6.31
2017-03-14T06:09:11.191Z,6.17
2017-03-14T06:14:07.801Z,6.31
2017-03-14T06:19:04.192Z,6.39
2017-03-14T06:24:00.435Z,6.41
2017-03-14T06:28:57.166Z,6.41
2017-03-14T06:33:54.156Z,6.38
2017-03-14T06:38:50.864Z,6.38
2017-03-14T06:43:47.634Z,6.33
2017-03-14T06:48:44.198Z,6.31
2017-03-14T06:53:40.432Z,6.41
2017-03-14T06:58:37.295Z,6.41
2017-03-14T07:03:33.968Z,6.44
2017-03-14T07:08:31.026Z,6.75
2017-03-14T07:13:27.672Z,6.92
2017-03-14T07:18:24.144Z,6.78
2017-03-14T07:23:22.009Z,6.89
2017-03-14T07:28:19.655Z,7.15
2017-03-14T07:33:16.392Z,7.77
2017-03-14T07:38:12.967Z,8.23
2017-03-14T07:43:09.940Z,8.79
2017-03-14T07:48:06.427Z,8.20
2017-03-14T07:53:02.698Z,7.87
2017-03-14T07:57:59.190Z,7.85
2017-03-14T08:02:55.498Z,7.82
2017-03-14T08:07:52.080Z,7.94
2017-03-14T08:12:48.459Z,8.12
2017-03-14T08:17:45.087Z,8.24
2017-03-14T08:22:42.478Z,8.34
2017-03-14T08:27:39.190Z,8.31
2017-03-14T08:32:35.496Z,8.56
2017-03-14T08:37:32.482Z,8.71
2017-03-14T08:42:29.284Z,8.70
2017-03-14T08:47:25.756Z,8.55
2017-03-14T08:52:22.418Z,8.56
2017-03-14T08:57:20.202Z,8.67
2017-03-14T09:02:16.185Z,8.81
2017-03-14T09:07:12.933Z,8.92
2017-03-14T09:12:09.678Z,8.94
2017-03-14T09:17:06.251Z,9.11
2017-03-14T09:22:03.041Z,9.22
2017-03-14T09:26:59.930Z,9.46
2017-03-14T09:31:56.737Z,9.43
2017-03-14T09:36:53.213Z,9.82
2017-03-14T09:41:50.092Z,10.15
2017-03-14T09:46:47.055Z,11.04
2017-03-14T09:51:43.840Z,11.62
2017-03-14T09:56:40.604Z,11.35
2017-03-14T10:01:37.387Z,11.19
2017-03-14T10:06:33.931Z,11.50
2017-03-14T10:11:31.023Z,11.87
2017-03-14T10:16:27.865Z,12.24
2017-03-14T10:21:25.169Z,12.35
2017-03-14T10:26:21.795Z,12.78
2017-03-14T10:31:18.759Z,13.28
2017-03-14T10:36:16.093Z,13.19
2017-03-14T10:41:13.451Z,13.65
2017-03-14T10:46:10.281Z,13.70
2017-03-14T10:51:07.080Z,14.23
2017-03-14T10:56:03.976Z,14.47
2017-03-14T11:01:00.776Z,15.52
2017-03-14T11:05:58.568Z,15.35
2017-03-14T11:10:56.344Z,16.20
2017-03-14T11:15:53.554Z,17.08
2017-03-14T11:20:50.995Z,16.83
2017-03-14T11:25:47.844Z,17.38
2017-03-14T11:30:45.897Z,17.11
2017-03-14T11:35:42.391Z,17.45
2017-03-14T11:40:39.093Z,17.54
2017-03-14T11:45:35.953Z,17.42
2017-03-14T11:50:32.802Z,17.30
2017-03-14T11:55:29.386Z,17.01
2017-03-14T12:00:25.411Z,15.90
2017-03-14T12:05:21.697Z,15.88
2017-03-14T12:10:18.746Z,16.24
2017-03-14T12:15:15.174Z,16.53
2017-03-14T12:20:13.317Z,16.58
2017-03-14T12:25:10.681Z,16.32
2017-03-14T12:30:06.973Z,15.92
2017-03-14T12:35:03.473Z,16.02
2017-03-14T12:40:00.501Z,16.32
2017-03-14T12:44:57.036Z,16.35
2017-03-14T12:49:53.213Z,15.65
2017-03-14T12:54:49.712Z,15.46
2017-03-14T12:59:47.206Z,16.10
2017-03-14T13:04:43.828Z,16.35
2017-03-14T13:09:40.837Z,16.20
2017-03-14T13:14:37.769Z,16.12
2017-03-14T13:19:34.536Z,16.79
2017-03-14T13:24:31.496Z,16.49
2017-03-14T13:29:28.135Z,16.65
2017-03-14T13:34:25.060Z,16.91
2017-03-14T13:39:21.700Z,16.93
2017-03-14T13:44:18.420Z,16.36
2017-03-14T13:49:14.336Z,15.73
2017-03-14T13:54:11.697Z,16.09
2017-03-14T13:59:08.185Z,16.23
2017-03-14T14:04:04.846Z,16.58
2017-03-14T14:09:01.051Z,15.80
2017-03-14T14:13:58.200Z,16.35
2017-03-14T14:18:55.043Z,16.39
2017-03-14T14:23:52.660Z,15.72
2017-03-14T14:28:48.628Z,15.54
2017-03-14T14:33:45.591Z,15.72
2017-03-14T14:38:42.038Z,15.65
2017-03-14T14:43:39.190Z,15.72
2017-03-14T14:48:35.864Z,15.94
2017-03-14T14:53:32.190Z,15.72
2017-03-14T14:58:28.911Z,15.55
2017-03-14T15:03:25.234Z,15.44
2017-03-14T15:08:22.402Z,15.35
2017-03-14T15:13:18.985Z,15.21
2017-03-14T15:18:15.563Z,15.22
2017-03-14T15:23:12.155Z,15.00
2017-03-14T15:28:08.735Z,14.97
2017-03-14T15:33:05.262Z,15.00
2017-03-14T15:38:01.969Z,15.11
2017-03-14T15:42:58.937Z,14.97
2017-03-14T15:47:55.659Z,14.96
2017-03-14T15:52:53.111Z,14.97
2017-03-14T15:57:49.695Z,14.89
2017-03-14T16:02:46.013Z,14.81
2017-03-14T16:07:42.536Z,14.62
2017-03-14T16:12:40.018Z,14.55
2017-03-14T16:17:36.634Z,14.48
2017-03-14T16:22:33.420Z,14.40
2017-03-14T16:27:30.177Z,14.33
2017-03-14T16:32:26.615Z,14.32
2017-03-14T16:37:23.350Z,14.28
2017-03-14T16:42:19.704Z,14.14
2017-03-14T16:47:16.020Z,13.96
2017-03-14T16:52:12.525Z,13.81
2017-03-14T16:57:09.014Z,13.81
2017-03-14T17:02:05.310Z,13.72
2017-03-14T17:07:01.753Z,13.59
2017-03-14T17:11:58.804Z,13.59
2017-03-14T17:16:55.618Z,13.30
2017-03-14T17:21:52.011Z,13.28
2017-03-14T17:26:48.494Z,13.13
2017-03-14T17:31:45.531Z,13.12
2017-03-14T17:36:42.219Z,13.03
2017-03-14T17:41:38.675Z,12.97
2017-03-14T17:46:35.284Z,12.86
2017-03-14T17:51:31.914Z,13.09
2017-03-14T17:56:28.314Z,13.15
2017-03-14T18:01:24.922Z,13.28
2017-03-14T18:06:21.658Z,13.42
2017-03-14T18:11:18.539Z,13.35
2017-03-14T18:16:14.859Z,13.30
2017-03-14T18:21:11.408Z,13.30
2017-03-14T18:26:08.672Z,13.35
2017-03-14T18:31:05.080Z,13.25
2017-03-14T18:36:02.360Z,13.30
2017-03-14T18:40:58.754Z,13.19
2017-03-14T18:45:55.262Z,13.23
2017-03-14T18:50:51.709Z,12.86
2017-03-14T18:55:47.883Z,12.68
2017-03-14T19:00:44.224Z,12.54
2017-03-14T19:05:40.554Z,12.39
2017-03-14T19:10:36.734Z,12.37
2017-03-14T19:15:33.109Z,12.32
2017-03-14T19:20:29.525Z,12.09
2017-03-14T19:25:26.095Z,11.99
2017-03-14T19:30:22.887Z,11.80
2017-03-14T19:35:19.428Z,11.66
2017-03-14T19:40:15.828Z,11.62
2017-03-14T19:45:12.296Z,11.55
2017-03-14T19:50:08.806Z,11.52
2017-03-14T19:55:05.233Z,11.37
2017-03-14T20:00:01.551Z,11.43
2017-03-14T20:04:57.751Z,11.35
2017-03-14T20:09:55.111Z,11.33
2017-03-14T20:14:51.547Z,11.10
2017-03-14T20:19:47.880Z,11.18
2017-03-14T20:24:45.477Z,11.08
2017-03-14T20:29:41.836Z,11.02
2017-03-14T20:34:38.280Z,10.84
2017-03-14T20:39:34.587Z,10.76
2017-03-14T20:44:30.906Z,10.82
2017-03-14T20:49:29.272Z,10.86
2017-03-14T20:54:25.832Z,10.76
2017-03-14T20:59:22.133Z,10.72
2017-03-14T21:04:18.883Z,10.76
2017-03-14T21:09:15.541Z,10.69
2017-03-14T21:14:11.983Z,10.59
2017-03-14T21:19:08.695Z,10.71
2017-03-14T21:24:05.403Z,10.72
2017-03-14T21:29:02.561Z,10.61
2017-03-14T21:33:59.037Z,10.72
2017-03-14T21:38:55.596Z,10.71
2017-03-14T21:43:51.777Z,10.57
2017-03-14T21:48:48.695Z,10.51
2017-03-14T21:53:45.139Z,10.41
2017-03-14T21:58:42.278Z,10.44
2017-03-14T22:03:38.518Z,10.51
2017-03-14T22:08:35.257Z,10.46
2017-03-14T22:13:31.661Z,10.26
2017-03-14T22:18:28.265Z,10.09
2017-03-14T22:23:25.001Z,10.28
2017-03-14T22:28:21.520Z,10.16
2017-03-14T22:33:17.995Z,10.09
2017-03-14T22:38:14.240Z,10.16
2017-03-14T22:43:10.617Z,10.20
2017-03-14T22:48:07.001Z,10.04
2017-03-14T22:53:03.415Z,9.98
2017-03-14T22:57:59.434Z,9.83
2017-03-14T23:02:55.945Z,9.76
2017-03-14T23:07:52.803Z,9.58
2017-03-14T23:12:49.458Z,9.50
2017-03-14T23:17:45.875Z,9.47
2017-03-14T23:22:41.950Z,9.58
2017-03-14T23:27:39.136Z,9.55
2017-03-14T23:32:35.467Z,9.46
2017-03-14T23:37:32.236Z,9.23
2017-03-14T23:42:28.685Z,9.18
2017-03-14T23:47:25.068Z,9.10
2017-03-14T23:52:21.514Z,9.14
2017-03-14T23:57:17.775Z,9.14
